Time;durP1;ratioP1;P1;durP2;ratioP2;P2;SDS_P1;SDS_P2;PMS_P1;PMS_P2;Temp;Humidity;BMP_temperature;BMP_pressure;BME280_temperature;BME280_humidity;BME280_pressure;Samples;Min_cycle;Max_cycle;Signal;HPM_P1;HPM_P2
2023/10/11 00:01:48;;;;;;;0.00;0.00;;;;;;;17.11;100.00;101365.03;5112501;28;20057;-46
2023/10/11 00:04:26;;;;;;;0.00;0.00;;;;;;;17.10;100.00;101366.94;5112697;28;20026;-43
2023/10/11 00:06:54;;;;;;;0.00;0.00;;;;;;;17.08;100.00;101357.31;5112405;28;20023;-42
2023/10/11 00:09:35;;;;;;;0.00;0.00;;;;;;;17.07;100.00;101371.97;5121527;27;20125;-43
2023/10/11 00:12:04;;;;;;;0.00;0.00;;;;;;;17.07;100.00;101369.25;5113722;27;20042;-45
2023/10/11 00:14:31;;;;;;;0.00;0.00;;;;;;;17.08;100.00;101368.19;5112012;28;20028;-44
2023/10/11 00:16:57;;;;;;;0.00;0.00;;;;;;;17.08;100.00;101369.03;5111542;28;20043;-43
2023/10/11 00:19:28;;;;;;;0.00;0.00;;;;;;;17.09;100.00;101364.44;5111824;28;20096;-43
2023/10/11 00:21:53;;;;;;;0.00;0.00;;;;;;;17.09;100.00;101367.16;5111706;28;20024;-45
2023/10/11 00:24:23;;;;;;;0.00;0.00;;;;;;;17.09;100.00;101359.84;5111783;28;20042;-44
2023/10/11 00:26:49;;;;;;;0.00;0.00;;;;;;;17.09;100.00;101359.84;5111507;28;20355;-43
2023/10/11 00:29:15;;;;;;;0.00;0.00;;;;;;;17.09;100.00;101348.97;5111967;28;20528;-41
2023/10/11 00:31:40;;;;;;;0.00;0.00;;;;;;;17.07;100.00;101359.22;5111190;28;20118;-44
2023/10/11 00:34:10;;;;;;;0.00;0.00;;;;;;;17.11;100.00;101352.31;5112037;28;20107;-46
2023/10/11 00:36:35;;;;;;;0.00;0.00;;;;;;;17.10;100.00;101356.06;5109135;28;20020;-43
2023/10/11 00:39:01;;;;;;;0.00;0.00;;;;;;;17.09;100.00;101359.84;5110229;28;20110;-48
2023/10/11 00:41:30;;;;;;;0.00;0.00;;;;;;;17.09;100.00;101353.56;5111442;28;20055;-44
2023/10/11 00:43:56;;;;;;;0.00;0.00;;;;;;;17.09;100.00;101348.13;5111102;28;20061;-45
2023/10/11 00:46:23;;;;;;;0.00;0.00;;;;;;;17.08;100.00;101351.88;5110616;28;20035;-44
2023/10/11 00:48:56;;;;;;;0.00;0.00;;;;;;;17.08;100.00;101341.00;5093368;28;20516;-43
2023/10/11 00:51:26;;;;;;;0.00;0.00;;;;;;;17.06;100.00;101335.78;5110249;28;20070;-44
2023/10/11 00:53:52;;;;;;;0.00;0.00;;;;;;;17.03;100.00;101335.34;5111816;28;20019;-44
2023/10/11 00:56:18;;;;;;;0.00;0.00;;;;;;;17.04;100.00;101328.91;5110768;28;20049;-43
2023/10/11 00:58:44;;;;;;;0.00;0.00;;;;;;;17.02;100.00;101330.97;5110497;28;20462;-44
2023/10/11 01:01:10;;;;;;;0.00;0.00;;;;;;;17.03;100.00;101328.03;5109769;28;20102;-44
2023/10/11 01:03:41;;;;;;;0.00;0.00;;;;;;;17.01;100.00;101330.16;5109737;28;20039;-42
2023/10/11 01:06:09;;;;;;;0.00;0.00;;;;;;;16.99;100.00;101326.81;5110597;28;20467;-46
2023/10/11 01:08:40;;;;;;;0.00;0.00;;;;;;;16.96;100.00;101326.41;5110213;28;20067;-45
2023/10/11 01:11:11;;;;;;;0.00;0.00;;;;;;;16.97;100.00;101328.06;5110520;28;20077;-46
2023/10/11 01:13:41;;;;;;;0.00;0.00;;;;;;;16.93;100.00;101321.38;5110421;28;20441;-43
2023/10/11 01:16:10;;;;;;;0.00;0.00;;;;;;;16.93;100.00;101318.66;5110157;28;20035;-45
2023/10/11 01:18:37;;;;;;;0.00;0.00;;;;;;;16.93;100.00;101326.81;5111660;28;20034;-45
2023/10/11 01:21:03;;;;;;;0.00;0.00;;;;;;;16.92;100.00;101319.72;5110409;28;20024;-45
2023/10/11 01:23:28;;;;;;;0.00;0.00;;;;;;;16.91;100.00;101315.31;5110465;28;20081;-42
2023/10/11 01:25:55;;;;;;;0.00;0.00;;;;;;;16.89;100.00;101310.91;5110246;28;20027;-46
2023/10/11 01:28:21;;;;;;;0.00;0.00;;;;;;;16.87;100.00;101309.47;5110352;28;20485;-44
2023/10/11 01:30:47;;;;;;;0.00;0.00;;;;;;;16.85;100.00;101308.81;5110255;28;20499;-45
2023/10/11 01:33:16;;;;;;;0.00;0.00;;;;;;;16.87;100.00;101302.13;5110358;28;20032;-44
2023/10/11 01:35:42;;;;;;;0.00;0.00;;;;;;;16.85;100.00;101297.97;5124759;27;20027;-43
2023/10/11 01:38:07;;;;;;;0.00;0.00;;;;;;;16.85;100.00;101293.38;5110205;28;20046;-43
2023/10/11 01:40:33;;;;;;;0.00;0.00;;;;;;;16.81;100.00;101302.16;5096906;28;20031;-46
2023/10/11 01:42:59;;;;;;;0.00;0.00;;;;;;;16.80;100.00;101293.19;5100645;28;20095;-45
2023/10/11 01:45:24;;;;;;;0.00;0.00;;;;;;;16.79;100.00;101293.38;5104682;28;20497;-43
2023/10/11 01:47:56;;;;;;;0.00;0.00;;;;;;;16.79;100.00;101280.63;5111364;28;20454;-42
2023/10/11 01:50:24;;;;;;;0.00;0.00;;;;;;;16.77;100.00;101285.44;5111593;28;20073;-44
2023/10/11 01:52:50;;;;;;;0.00;0.00;;;;;;;16.75;100.00;101268.47;5110671;28;20423;-44
2023/10/11 01:55:17;;;;;;;0.00;0.00;;;;;;;16.75;100.00;101276.63;5110733;28;20038;-45
2023/10/11 01:57:45;;;;;;;0.00;0.00;;;;;;;16.71;100.00;101275.38;5110871;28;20358;-45
2023/10/11 02:00:14;;;;;;;0.00;0.00;;;;;;;16.71;100.00;101278.09;5110901;28;20027;-43
2023/10/11 02:02:55;;;;;;;0.00;0.00;;;;;;;16.68;100.00;101279.34;5110804;28;20047;-46
2023/10/11 02:05:24;;;;;;;0.00;0.00;;;;;;;16.67;100.00;101285.03;5112433;28;20032;-43
2023/10/11 02:07:50;;;;;;;0.00;0.00;;;;;;;16.66;100.00;101277.88;5111956;28;20021;-42
2023/10/11 02:10:25;;;;;;;0.00;0.00;;;;;;;16.66;100.00;101284.16;5111094;28;20034;-43
2023/10/11 02:12:50;;;;;;;0.00;0.00;;;;;;;16.66;100.00;101286.88;5110806;28;20032;-42
2023/10/11 02:15:27;;;;;;;0.00;0.00;;;;;;;16.64;100.00;101269.09;5114245;28;20042;-43
2023/10/11 02:17:53;;;;;;;0.00;0.00;;;;;;;16.63;100.00;101267.44;5116151;28;20077;-49
2023/10/11 02:20:22;;;;;;;0.00;0.00;;;;;;;16.63;100.00;101271.00;5114886;28;20269;-47
2023/10/11 02:22:51;;;;;;;0.00;0.00;;;;;;;16.58;100.00;101272.69;5114588;28;20031;-45
2023/10/11 02:25:17;;;;;;;0.00;0.00;;;;;;;16.59;100.00;101266.22;5113870;28;20152;-43
2023/10/11 02:27:42;;;;;;;0.00;0.00;;;;;;;16.59;100.00;101261.63;5115041;28;20080;-43
2023/10/11 02:30:14;;;;;;;0.00;0.00;;;;;;;16.58;100.00;101253.66;5116336;27;20414;-47
2023/10/11 02:32:43;;;;;;;0.00;0.00;;;;;;;16.56;100.00;101253.03;5114358;28;20043;-46
2023/10/11 02:35:12;;;;;;;0.00;0.00;;;;;;;16.55;100.00;101251.38;5114352;28;20056;-47
2023/10/11 02:37:37;;;;;;;0.00;0.00;;;;;;;16.55;100.00;101251.38;5113923;28;20073;-43
2023/10/11 02:40:08;;;;;;;0.00;0.00;;;;;;;16.56;100.00;101261.19;5114439;28;20066;-42
2023/10/11 02:42:37;;;;;;;0.00;0.00;;;;;;;16.56;100.00;101263.91;5132420;27;20491;-47
2023/10/11 02:45:06;;;;;;;0.00;0.00;;;;;;;16.53;100.00;101262.44;5122388;27;20131;-43
2023/10/11 02:47:35;;;;;;;0.00;0.00;;;;;;;16.51;100.00;101264.56;5113351;28;20032;-46
2023/10/11 02:50:05;;;;;;;0.00;0.00;;;;;;;16.51;100.00;101263.69;5114470;28;20658;-44
2023/10/11 02:52:35;;;;;;;0.00;0.00;;;;;;;16.49;100.00;101265.81;5113588;28;20035;-46
2023/10/11 02:57:44;;;;;;;0.00;0.00;;;;;;;16.51;100.00;101271.84;5112619;28;20035;-46
2023/10/11 03:00:22;;;;;;;0.00;0.00;;;;;;;16.51;100.00;101263.69;5114279;28;20141;-45
2023/10/11 03:02:56;;;;;;;0.00;0.00;;;;;;;16.50;100.00;101256.59;5114533;28;20050;-43
2023/10/11 03:05:27;;;;;;;0.00;0.00;;;;;;;16.52;100.00;101260.78;5114191;28;20031;-43
2023/10/11 03:08:19;;;;;;;0.00;0.00;;;;;;;16.53;100.00;101262.44;5113550;28;20428;-46
2023/10/11 03:10:44;;;;;;;0.00;0.00;;;;;;;16.53;100.00;101259.72;5113210;28;20275;-48
2023/10/11 03:13:23;;;;;;;0.00;0.00;;;;;;;16.54;100.00;101252.44;5113557;28;20053;-44
2023/10/11 03:15:54;;;;;;;0.00;0.00;;;;;;;16.55;100.00;101243.22;5113566;28;20365;-42
2023/10/11 03:18:25;;;;;;;0.00;0.00;;;;;;;16.49;100.00;101244.06;5112973;28;20027;-46
2023/10/11 03:21:06;;;;;;;0.00;0.00;;;;;;;16.46;100.00;101251.59;5112955;28;20088;-45
2023/10/11 03:23:35;;;;;;;0.00;0.00;;;;;;;16.45;100.00;101249.91;5097548;28;20024;-43
2023/10/11 03:26:08;;;;;;;0.00;0.00;;;;;;;16.45;100.00;101249.91;5092406;28;20024;-46
2023/10/11 03:28:34;;;;;;;0.00;0.00;;;;;;;16.49;100.00;101250.34;5100330;28;20035;-46
2023/10/11 03:30:59;;;;;;;0.00;0.00;;;;;;;16.49;100.00;101247.63;5113524;28;20308;-40
2023/10/11 03:33:26;;;;;;;0.00;0.00;;;;;;;16.51;100.00;101252.81;5113147;28;20087;-47
2023/10/11 03:35:51;;;;;;;0.00;0.00;;;;;;;16.52;100.00;101249.91;5113301;28;20020;-46
2023/10/11 03:38:17;;;;;;;0.00;0.00;;;;;;;16.52;100.00;101249.09;5112992;28;20092;-44
2023/10/11 03:40:55;;;;;;;0.00;0.00;;;;;;;16.52;100.00;101249.09;5113563;28;20110;-44
2023/10/11 03:43:22;;;;;;;0.00;0.00;;;;;;;16.52;100.00;101243.66;5113349;28;20023;-43
2023/10/11 03:45:50;;;;;;;0.00;0.00;;;;;;;16.55;100.00;101254.91;5109811;28;20035;-46
2023/10/11 03:48:20;;;;;;;0.00;0.00;;;;;;;16.58;100.00;101253.66;5111451;28;20028;-45
2023/10/11 03:50:48;;;;;;;0.00;0.00;;;;;;;16.59;100.00;101249.91;5111442;28;20523;-42
2023/10/11 03:53:15;;;;;;;0.00;0.00;;;;;;;16.62;100.00;101241.34;5111569;28;20035;-46
2023/10/11 03:55:45;;;;;;;0.00;0.00;;;;;;;16.63;100.00;101243.00;5111117;28;20028;-47
2023/10/11 03:58:15;;;;;;;0.00;0.00;;;;;;;16.67;100.00;101241.53;5112174;27;20027;-45
2023/10/11 04:00:47;;;;;;;0.00;0.00;;;;;;;16.69;100.00;101236.69;5120732;27;20016;-45
2023/10/11 04:03:14;;;;;;;0.00;0.00;;;;;;;16.72;100.00;101230.84;5110274;28;20048;-48
2023/10/11 04:05:40;;;;;;;0.00;0.00;;;;;;;16.72;100.00;101230.84;5109334;28;20096;-43
2023/10/11 04:08:07;;;;;;;0.00;0.00;;;;;;;16.76;100.00;101233.97;5109684;28;20060;-44
2023/10/11 04:10:39;;;;;;;0.00;0.00;;;;;;;16.74;100.00;101223.31;5110781;28;20115;-45
2023/10/11 04:13:09;;;;;;;0.00;0.00;;;;;;;16.78;100.00;101227.31;5110877;28;20024;-44
2023/10/11 04:15:39;;;;;;;0.00;0.00;;;;;;;16.76;100.00;101225.81;5114561;27;20154;-46
2023/10/11 04:18:14;;;;;;;0.00;0.00;;;;;;;16.79;100.00;101217.25;5102079;28;20081;-46
2023/10/11 04:20:40;;;;;;;0.00;0.00;;;;;;;16.79;100.00;101217.25;5090339;28;20035;-45
2023/10/11 04:23:14;;;;;;;0.00;0.00;;;;;;;16.79;100.00;101223.53;5105073;28;20031;-49
2023/10/11 04:25:43;;;;;;;0.00;0.00;;;;;;;16.82;100.00;101233.97;5110180;28;20027;-42
2023/10/11 04:28:12;;;;;;;0.00;0.00;;;;;;;16.82;100.00;101233.16;5110338;28;20424;-43
2023/10/11 04:30:44;;;;;;;0.00;0.00;;;;;;;16.83;100.00;101226.69;5110599;28;20038;-43
2023/10/11 04:33:19;;;;;;;0.00;0.00;;;;;;;16.84;100.00;101229.16;5110255;28;20565;-43
2023/10/11 04:35:46;;;;;;;0.00;0.00;;;;;;;16.86;100.00;101237.94;5110149;28;20330;-43
2023/10/11 04:38:12;;;;;;;0.00;0.00;;;;;;;16.82;100.00;101228.53;5109736;28;20032;-45
2023/10/11 04:43:04;;;;;;;0.00;0.00;;;;;;;16.83;100.00;101224.78;5110613;28;20040;-45
2023/10/11 04:45:45;;;;;;;0.00;0.00;;;;;;;16.84;100.00;101231.88;5108861;28;20028;-42
2023/10/11 04:48:14;;;;;;;0.00;0.00;;;;;;;16.84;100.00;101228.34;5109284;28;20364;-46
2023/10/11 04:50:44;;;;;;;0.00;0.00;;;;;;;16.85;100.00;101219.97;5109932;28;20032;-46
2023/10/11 04:53:17;;;;;;;0.00;0.00;;;;;;;16.83;100.00;101219.34;5111321;28;20031;-43
2023/10/11 04:55:58;;;;;;;0.00;0.00;;;;;;;16.83;100.00;101229.41;5108964;28;20139;-45
2023/10/11 04:58:42;;;;;;;0.00;0.00;;;;;;;16.80;100.00;101233.38;5104626;28;20110;-44
2023/10/11 05:01:11;;;;;;;0.00;0.00;;;;;;;16.84;100.00;101231.06;5109817;28;20046;-43
2023/10/11 05:03:37;;;;;;;0.00;0.00;;;;;;;16.81;100.00;101228.75;5111230;28;20043;-45
2023/10/11 05:06:13;;;;;;;0.00;0.00;;;;;;;16.81;100.00;101223.34;5093045;28;20050;-45
2023/10/11 05:08:51;;;;;;;0.00;0.00;;;;;;;16.83;100.00;101230.22;5111936;28;20042;-42
2023/10/11 05:11:36;;;;;;;0.00;0.00;;;;;;;16.81;100.00;101235.03;5110683;28;20035;-43
2023/10/11 05:14:28;;;;;;;0.00;0.00;;;;;;;16.81;100.00;101232.31;5111501;28;20043;-46
2023/10/11 05:17:16;;;;;;;0.00;0.00;;;;;;;16.78;100.00;101232.75;5090945;28;20036;-43
2023/10/11 05:22:46;;;;;;;0.00;0.00;;;;;;;16.77;100.00;101233.81;5102763;28;20430;-47
2023/10/11 05:27:49;;;;;;;0.00;0.00;;;;;;;16.76;100.00;101232.09;5112533;27;20470;-42
2023/10/11 05:30:28;;;;;;;0.00;0.00;;;;;;;16.78;100.00;101226.47;5109623;28;20035;-44
2023/10/11 05:32:58;;;;;;;0.00;0.00;;;;;;;16.75;100.00;101214.13;5090873;28;20039;-45
2023/10/11 05:51:31;;;;;;;0.00;0.00;;;;;;;16.78;100.00;101221.03;5108952;28;20058;-44
2023/10/11 05:53:59;;;;;;;0.00;0.00;;;;;;;16.77;100.00;101224.75;5110271;28;20035;-42
2023/10/11 05:56:25;;;;;;;0.00;0.00;;;;;;;16.79;100.00;101228.13;5110744;28;20020;-45
2023/10/11 05:58:52;;;;;;;0.00;0.00;;;;;;;16.82;100.00;101236.69;5106698;28;20034;-43
2023/10/11 06:01:23;;;;;;;0.00;0.00;;;;;;;16.83;100.00;101234.84;5099936;28;20138;-46
2023/10/11 06:03:55;;;;;;;0.00;0.00;;;;;;;16.85;100.00;101239.00;5107522;28;20027;-45
2023/10/11 06:06:26;;;;;;;0.00;0.00;;;;;;;16.87;100.00;101241.50;5096542;28;20027;-44
2023/10/11 06:08:52;;;;;;;0.00;0.00;;;;;;;16.88;100.00;101241.28;5110452;28;20381;-45
2023/10/11 06:11:19;;;;;;;0.00;0.00;;;;;;;16.94;100.00;101236.06;5110575;28;20111;-45
2023/10/11 06:13:45;;;;;;;0.00;0.00;;;;;;;16.95;100.00;101237.72;5110408;28;20032;-44
2023/10/11 06:16:14;;;;;;;0.00;0.00;;;;;;;16.95;100.00;101237.72;5109658;28;20035;-45
2023/10/11 06:18:39;;;;;;;0.00;0.00;;;;;;;16.96;100.00;101244.84;5110244;28;20172;-45
2023/10/11 06:21:18;;;;;;;0.00;0.00;;;;;;;16.94;100.00;101241.50;5110467;28;20032;-44
2023/10/11 06:23:48;;;;;;;0.00;0.00;;;;;;;16.93;100.00;101239.81;5110218;28;20039;-47
2023/10/11 06:29:15;;;;;;;0.00;0.00;;;;;;;16.94;100.00;101246.94;5073502;28;20040;-47
2023/10/11 06:31:43;;;;;;;0.00;0.00;;;;;;;16.93;100.00;101242.53;5099465;28;20533;-44
2023/10/11 06:36:49;;;;;;;0.00;0.00;;;;;;;16.93;100.00;101228.91;5110743;28;20027;-43
2023/10/11 06:44:47;;;;;;;0.00;0.00;;;;;;;16.96;100.00;101239.41;5110648;28;20313;-46
2023/10/11 06:47:16;;;;;;;0.00;0.00;;;;;;;17.00;100.00;101244.16;5109848;28;20027;-43
2023/10/11 06:49:44;;;;;;;0.00;0.00;;;;;;;17.04;100.00;101247.31;5110488;28;20123;-42
2023/10/11 06:52:17;;;;;;;0.00;0.00;;;;;;;17.02;100.00;101241.25;5094347;28;20389;-42
2023/10/11 06:54:47;;;;;;;0.00;0.00;;;;;;;17.04;100.00;101253.59;5111274;28;20072;-45
2023/10/11 06:57:21;;;;;;;0.00;0.00;;;;;;;17.12;100.00;101263.38;5109747;28;20024;-48
2023/10/11 06:59:51;;;;;;;0.00;0.00;;;;;;;17.15;100.00;101265.66;5110188;28;20031;-44
2023/10/11 07:02:31;;;;;;;0.00;0.00;;;;;;;17.14;100.00;101268.59;5114232;28;20039;-48
2023/10/11 07:05:00;;;;;;;0.00;0.00;;;;;;;17.10;100.00;101254.59;5114273;28;20019;-45
2023/10/11 07:07:26;;;;;;;0.00;0.00;;;;;;;17.11;100.00;101258.97;5113996;28;20110;-47
2023/10/11 07:09:57;;;;;;;0.00;0.00;;;;;;;17.13;100.00;101258.78;5114136;28;20051;-47
2023/10/11 07:13:03;;;;;;;0.00;0.00;;;;;;;17.17;100.00;101265.44;5113638;28;20040;-43
2023/10/11 07:15:16;;;;;;;0.00;0.00;;;;;;;17.16;100.00;101261.88;5104648;28;20127;-46
2023/10/11 07:17:42;;;;;;;0.00;0.00;;;;;;;17.15;100.00;101270.28;5112678;28;20421;-44
2023/10/11 07:20:44;;;;;;;0.00;0.00;;;;;;;17.17;100.00;101273.59;5113315;28;20138;-48
2023/10/11 07:22:57;;;;;;;0.00;0.00;;;;;;;17.14;100.00;101268.59;5112534;28;20036;-43
2023/10/11 07:25:59;;;;;;;0.00;0.00;;;;;;;17.17;100.00;101274.47;5113267;28;20073;-44
2023/10/11 07:28:17;;;;;;;0.00;0.00;;;;;;;17.22;100.00;101262.91;5110149;28;20452;-46
2023/10/11 07:30:43;;;;;;;0.00;0.00;;;;;;;17.20;100.00;101262.31;5093278;28;20744;-42
2023/10/11 07:33:11;;;;;;;0.00;0.00;;;;;;;17.24;100.00;101269.81;5104544;28;20028;-43
2023/10/11 07:35:43;;;;;;;0.00;0.00;;;;;;;17.27;100.00;101269.41;5107086;27;20185;-44
2023/10/11 07:38:09;;;;;;;0.00;0.00;;;;;;;17.28;100.00;101275.66;5108292;28;20026;-45
2023/10/11 07:40:42;;;;;;;0.00;0.00;;;;;;;17.31;100.00;101275.22;5089164;28;20032;-45
2023/10/11 07:43:08;;;;;;;0.00;0.00;;;;;;;17.34;100.00;101278.34;5107127;28;20547;-49
2023/10/11 07:45:37;;;;;;;0.00;0.00;;;;;;;17.39;100.00;101274.97;5107253;28;20032;-43
2023/10/11 07:48:04;;;;;;;0.00;0.00;;;;;;;17.39;100.00;101288.59;5106530;27;20027;-46
2023/10/11 07:50:29;;;;;;;0.00;0.00;;;;;;;17.39;100.00;101274.97;5108097;27;20331;-44
2023/10/11 07:52:55;;;;;;;0.00;0.00;;;;;;;17.36;100.00;101277.31;5107658;28;20028;-43
2023/10/11 07:55:25;;;;;;;0.00;0.00;;;;;;;17.34;100.00;101283.78;5108099;28;20111;-46
2023/10/11 07:57:50;;;;;;;0.00;0.00;;;;;;;17.29;100.00;101294.47;5107895;28;20077;-44
2023/10/11 08:00:18;;;;;;;0.00;0.00;;;;;;;17.27;100.00;101293.88;5106635;28;20440;-44
2023/10/11 08:03:05;;;;;;;0.00;0.00;;;;;;;17.28;100.00;101281.94;5089716;28;20090;-44
2023/10/11 08:05:45;;;;;;;0.00;0.00;;;;;;;17.32;100.00;101283.19;5106194;27;20046;-47
2023/10/11 08:08:13;;;;;;;0.00;0.00;;;;;;;17.35;100.00;101287.34;5107084;28;20061;-42
2023/10/11 08:10:44;;;;;;;0.00;0.00;;;;;;;17.34;100.00;101288.41;5105556;28;20031;-44
2023/10/11 08:13:25;;;;;;;0.00;0.00;;;;;;;17.35;100.00;101292.78;5106944;28;20043;-45
2023/10/11 08:15:55;;;;;;;0.00;0.00;;;;;;;17.37;100.00;101289.84;5107603;28;20432;-46
2023/10/11 08:18:21;;;;;;;0.00;0.00;;;;;;;17.40;100.00;101273.09;5106051;28;20565;-44
2023/10/11 08:20:47;;;;;;;0.00;0.00;;;;;;;17.44;100.00;101279.78;5106978;28;20039;-45
2023/10/11 08:23:13;;;;;;;0.00;0.00;;;;;;;17.42;100.00;101292.75;5105108;28;20031;-45
2023/10/11 08:25:40;;;;;;;0.00;0.00;;;;;;;17.46;100.00;101299.44;5106290;28;20031;-47
2023/10/11 08:28:12;;;;;;;0.00;0.00;;;;;;;17.43;100.00;101278.94;5106073;28;20629;-44
2023/10/11 08:30:45;;;;;;;0.00;0.00;;;;;;;17.46;100.00;101266.81;5106291;28;20043;-48
2023/10/11 08:33:12;;;;;;;0.00;0.00;;;;;;;17.47;100.00;101284.78;5106474;28;20512;-47
2023/10/11 08:35:38;;;;;;;0.00;0.00;;;;;;;17.46;100.00;101277.69;5106694;27;20058;-45
2023/10/11 08:38:06;;;;;;;0.00;0.00;;;;;;;17.47;100.00;101268.47;5106747;28;20032;-43
2023/10/11 08:40:35;;;;;;;0.00;0.00;;;;;;;17.46;100.00;101266.81;5105963;28;20023;-43
2023/10/11 08:43:02;;;;;;;0.00;0.00;;;;;;;17.48;100.00;101264.66;5107034;28;20098;-48
2023/10/11 08:45:44;;;;;;;0.00;0.00;;;;;;;17.53;100.00;101279.28;5105655;27;20020;-43
2023/10/11 08:48:11;;;;;;;0.00;0.00;;;;;;;17.54;100.00;101270.09;5087612;28;20038;-41
2023/10/11 08:50:37;;;;;;;0.00;0.00;;;;;;;17.53;100.00;101268.41;5106191;28;20043;-46
2023/10/11 08:53:09;;;;;;;0.00;0.00;;;;;;;17.59;100.00;101272.16;5106456;27;20373;-45
2023/10/11 08:55:40;;;;;;;0.00;0.00;;;;;;;17.55;100.00;101268.19;5106232;28;20016;-44
2023/10/11 08:58:23;;;;;;;0.00;0.00;;;;;;;17.59;100.00;101271.31;5103087;28;20449;-42
2023/10/11 09:00:48;;;;;;;0.00;0.00;;;;;;;17.55;100.00;101271.75;5104870;28;20044;-43
2023/10/11 09:03:18;;;;;;;0.00;0.00;;;;;;;17.60;100.00;101268.38;5105896;28;20532;-43
2023/10/11 09:05:44;;;;;;;0.00;0.00;;;;;;;17.66;100.00;101272.13;5105773;28;20046;-45
2023/10/11 09:08:26;;;;;;;0.00;0.00;;;;;;;17.68;100.00;101270.84;5105761;28;20036;-44
2023/10/11 09:11:14;;;;;;;0.00;0.00;;;;;;;17.70;100.00;101278.81;5106509;28;20106;-45
2023/10/11 09:13:41;;;;;;;0.00;0.00;;;;;;;17.76;100.00;101278.75;5105193;28;20055;-44
2023/10/11 09:16:13;;;;;;;0.00;0.00;;;;;;;17.82;100.00;101292.56;5105977;28;20035;-44
2023/10/11 09:18:39;;;;;;;0.00;0.00;;;;;;;17.77;100.00;101299.50;5104961;28;20697;-45
2023/10/11 09:21:17;;;;;;;0.00;0.00;;;;;;;17.80;100.00;101289.22;5105822;28;20051;-42
2023/10/11 09:23:47;;;;;;;0.00;0.00;;;;;;;17.80;100.00;101286.50;5105268;28;20038;-42
2023/10/11 09:26:32;;;;;;;0.00;0.00;;;;;;;17.88;100.00;101297.16;5104211;28;21271;-43
2023/10/11 09:29:02;;;;;;;0.00;0.00;;;;;;;17.87;100.00;101285.41;5103467;28;20038;-46
2023/10/11 09:31:30;;;;;;;0.00;0.00;;;;;;;18.02;100.00;101287.84;5105448;28;20267;-47
2023/10/11 09:33:59;;;;;;;0.00;0.00;;;;;;;18.14;100.00;101286.09;5105523;28;20024;-46
2023/10/11 09:36:28;;;;;;;0.00;0.00;;;;;;;18.18;100.00;101290.00;5105143;28;20537;-44
2023/10/11 09:38:54;;;;;;;0.00;0.00;;;;;;;18.28;100.00;101299.59;5105701;28;20046;-44
2023/10/11 09:41:38;;;;;;;0.00;0.00;;;;;;;18.41;100.00;101288.59;5105130;28;20030;-45
2023/10/11 09:44:10;;;;;;;0.00;0.00;;;;;;;18.44;100.00;101282.69;5103943;28;20482;-47
2023/10/11 09:46:36;;;;;;;0.00;0.00;;;;;;;18.44;100.00;101282.69;5103285;28;20150;-47
2023/10/11 09:49:12;;;;;;;0.00;0.00;;;;;;;18.59;100.00;101285.06;5105310;28;20433;-43
2023/10/11 09:51:41;;;;;;;0.00;0.00;;;;;;;18.75;100.00;101283.69;5105344;28;20100;-44
2023/10/11 09:54:12;;;;;;;0.00;0.00;;;;;;;19.01;100.00;101269.75;5105354;28;20911;-42
2023/10/11 09:56:51;;;;;;;0.00;0.00;;;;;;;19.23;100.00;101269.28;5104466;28;20040;-43
2023/10/11 09:59:41;;;;;;;0.00;0.00;;;;;;;19.30;100.00;101265.41;5105627;28;20035;-43
2023/10/11 10:02:12;;;;;;;0.00;0.00;;;;;;;19.42;100.00;101259.19;5104525;28;20485;-45
2023/10/11 10:04:50;;;;;;;0.00;0.00;;;;;;;19.52;100.00;101260.28;5104975;28;20443;-43
2023/10/11 10:07:32;;;;;;;;;;;;;;;19.62;100.00;101264.38;5104951;28;20114;-47
2023/10/11 10:10:02;;;;;;;0.00;0.00;;;;;;;19.57;100.00;101272.41;5104456;28;19915;-48
2023/10/11 10:12:40;;;;;;;0.00;0.00;;;;;;;19.61;100.00;101254.50;5104457;28;20043;-46
2023/10/11 10:15:11;;;;;;;0.00;0.00;;;;;;;19.46;100.00;101250.31;5087429;28;20057;-46
2023/10/11 10:17:42;;;;;;;0.00;0.00;;;;;;;19.52;100.00;101246.63;5105120;28;20042;-43
2023/10/11 10:20:32;;;;;;;0.00;0.00;;;;;;;19.53;100.00;101242.81;5105266;28;20046;-42
2023/10/11 10:23:16;;;;;;;0.00;0.00;;;;;;;19.69;100.00;101237.81;5105743;28;20092;-41
2023/10/11 10:26:07;;;;;;;0.00;0.00;;;;;;;19.87;100.00;101212.34;5105183;28;20345;-43
2023/10/11 10:28:34;;;;;;;0.00;0.00;;;;;;;19.84;100.00;101202.72;5093454;28;20047;-44
2023/10/11 10:31:11;;;;;;;0.00;0.00;;;;;;;19.79;100.00;101220.88;5105364;28;20027;-43
2023/10/11 10:33:37;;;;;;;0.00;0.00;;;;;;;19.62;100.00;101209.75;5104180;28;20055;-46
2023/10/11 10:36:18;;;;;;;0.00;0.00;;;;;;;19.50;100.00;101216.00;5106290;28;20453;-47
2023/10/11 10:39:33;;;;;;;0.00;0.00;;;;;;;19.42;100.00;101212.78;5107808;28;20062;-45
2023/10/11 10:42:12;;;;;;;0.00;0.00;;;;;;;19.18;100.00;101237.22;5108818;28;20086;-42
2023/10/11 10:44:51;;;;;;;0.00;0.00;;;;;;;19.14;100.00;101214.22;5107690;28;20077;-47
2023/10/11 10:47:25;;;;;;;0.00;0.00;;;;;;;19.07;100.00;101219.72;5108999;28;20028;-46
2023/10/11 10:49:53;;;;;;;0.00;0.00;;;;;;;19.01;100.00;101212.47;5108602;28;20381;-45
2023/10/11 10:52:30;;;;;;;0.00;0.00;;;;;;;18.91;100.00;101214.91;5109205;28;20046;-44
2023/10/11 10:55:01;;;;;;;0.00;0.00;;;;;;;18.84;100.00;101214.16;5108334;28;20032;-44
2023/10/11 10:57:27;;;;;;;0.00;0.00;;;;;;;18.80;100.00;101213.78;5108471;28;20035;-44
2023/10/11 10:59:52;;;;;;;0.00;0.00;;;;;;;18.90;100.00;101221.41;5108246;28;20431;-46
2023/10/11 11:02:19;;;;;;;0.00;0.00;;;;;;;18.99;100.00;101222.78;5108519;28;20073;-44
2023/10/11 11:04:45;;;;;;;0.00;0.00;;;;;;;19.19;100.00;101227.97;5108374;28;21651;-43
2023/10/11 11:07:22;;;;;;;0.00;0.00;;;;;;;19.41;100.00;101224.75;5108609;28;20146;-42
2023/10/11 11:09:48;;;;;;;0.00;0.00;;;;;;;19.46;100.00;101217.53;5108378;28;20097;-42
2023/10/11 11:12:17;;;;;;;0.00;0.00;;;;;;;19.42;100.00;101226.41;5108562;28;20054;-43
2023/10/11 11:14:55;;;;;;;0.10;0.00;;;;;;;19.36;100.00;101214.53;5108949;28;20058;-42
2023/10/11 11:17:23;;;;;;;0.00;0.00;;;;;;;19.33;100.00;101223.19;5109100;28;20077;-44
2023/10/11 11:20:51;;;;;;;;;;;;;;;19.26;100.00;101206.06;5109438;28;20126;-44
2023/10/11 11:22:52;;;;;;;0.00;0.00;;;;;;;19.20;100.00;101204.25;5092945;28;19912;-44
2023/10/11 11:25:27;;;;;;;0.00;0.00;;;;;;;19.27;100.00;101210.44;5108753;28;20073;-44
2023/10/11 11:28:04;;;;;;;0.00;0.00;;;;;;;19.42;100.00;101215.50;5107582;28;20084;-44
2023/10/11 11:30:33;;;;;;;0.00;0.00;;;;;;;19.39;100.00;101216.78;5107054;28;20034;-43
2023/10/11 11:33:00;;;;;;;0.00;0.00;;;;;;;19.39;100.00;101214.06;5105548;28;20054;-45
2023/10/11 11:35:29;;;;;;;0.00;0.00;;;;;;;19.41;100.00;101228.31;5106317;28;20020;-43
2023/10/11 11:38:02;;;;;;;0.00;0.00;;;;;;;19.30;100.00;101218.19;5107159;28;20023;-42
2023/10/11 11:40:36;;;;;;;0.00;0.00;;;;;;;19.17;100.00;101213.75;5107056;28;20122;-46
2023/10/11 11:43:03;;;;;;;0.00;0.00;;;;;;;19.16;100.00;101214.78;5108544;28;20043;-44
2023/10/11 11:45:35;;;;;;;0.00;0.00;;;;;;;19.19;100.00;101199.84;5107486;28;20072;-46
2023/10/11 11:48:03;;;;;;;0.00;0.00;;;;;;;19.30;100.00;101213.56;5104191;28;20044;-46
2023/10/11 11:50:34;;;;;;;;;;;;;;;19.48;100.00;101215.41;5106043;28;20374;-44
2023/10/11 11:53:04;;;;;;;0.00;0.00;;;;;;;19.68;100.00;101200.66;5088512;28;20297;-42
2023/10/11 11:55:31;;;;;;;0.00;0.00;;;;;;;20.01;100.00;101210.22;5104062;28;20080;-43
2023/10/11 11:57:57;;;;;;;0.00;0.00;;;;;;;19.88;100.00;101208.53;5105274;28;20035;-45
2023/10/11 12:02:55;;;;;;;0.00;0.00;;;;;;;20.03;100.00;101195.25;5105055;28;20070;-45
2023/10/11 12:05:21;;;;;;;0.00;0.00;;;;;;;19.82;100.00;101204.84;5105103;28;20056;-44
2023/10/11 12:07:49;;;;;;;0.00;0.00;;;;;;;19.72;100.00;101207.31;5104072;28;20036;-46
2023/10/11 12:10:24;;;;;;;0.00;0.00;;;;;;;19.67;100.00;101218.13;5105279;28;20508;-44
2023/10/11 12:12:53;;;;;;;0.00;0.00;;;;;;;19.68;100.00;101195.19;5105144;28;20031;-42
2023/10/11 12:15:19;;;;;;;0.00;0.00;;;;;;;19.70;100.00;101201.25;5103226;28;20067;-45